Time;durP1;ratioP1;P1;durP2;ratioP2;P2;SDS_P1;SDS_P2;PMS_P1;PMS_P2;Temp;Humidity;BMP_temperature;BMP_pressure;BME280_temperature;BME280_humidity;BME280_pressure;Samples;Min_cycle;Max_cycle;Signal;HPM_P1;HPM_P2
2022/09/25 00:01:11;;;;;;;1999.90;999.90;;;;;;;12.09;100.00;92958.28;6271289;22;20170;-66
2022/09/25 00:03:37;;;;;;;1999.90;999.90;;;;;;;12.10;100.00;92948.84;6245602;23;20159;-66
2022/09/25 00:06:12;;;;;;;1999.90;999.90;;;;;;;12.10;100.00;92948.84;6245460;22;20198;-67
2022/09/25 00:08:38;;;;;;;1999.90;999.90;;;;;;;12.10;100.00;92943.38;6245549;22;20530;-66
2022/09/25 00:11:08;;;;;;;1999.90;999.90;;;;;;;12.10;100.00;92943.38;6271462;22;20226;-67
2022/09/25 00:13:33;;;;;;;1999.90;999.90;;;;;;;12.06;100.00;92931.88;6245486;23;20276;-66
2022/09/25 00:15:59;;;;;;;1999.90;999.90;;;;;;;12.04;100.00;92939.78;6244923;23;20198;-65
2022/09/25 00:21:12;;;;;;;1999.90;999.90;;;;;;;11.93;100.00;92945.06;6246989;23;20251;-65
2022/09/25 00:23:39;;;;;;;1999.90;999.90;;;;;;;11.86;100.00;92940.72;6245303;23;20475;-66
2022/09/25 00:26:06;;;;;;;1999.90;999.90;;;;;;;11.81;100.00;92946.09;6245493;23;20174;-66
2022/09/25 00:28:32;;;;;;;1999.90;999.90;;;;;;;11.79;100.00;92946.56;6245234;22;20154;-66
2022/09/25 00:30:58;;;;;;;1999.90;999.90;;;;;;;11.76;100.00;92946.75;6246317;23;20166;-66
2022/09/25 00:33:24;;;;;;;1999.90;999.90;;;;;;;11.70;100.00;92940.44;6271131;22;20193;-66
2022/09/25 00:35:49;;;;;;;1999.90;999.90;;;;;;;11.67;100.00;92938.63;6270731;22;20176;-66
2022/09/25 00:38:15;;;;;;;1999.90;999.90;;;;;;;11.64;100.00;92934.09;6245610;22;20162;-67
2022/09/25 00:40:40;;;;;;;1999.90;999.90;;;;;;;11.61;100.00;92940.50;6270840;22;20213;-67
2022/09/25 00:43:13;;;;;;;1999.90;999.90;;;;;;;11.54;100.00;92938.13;6246280;22;20163;-67
2022/09/25 00:45:39;;;;;;;1999.90;999.90;;;;;;;11.51;100.00;92942.53;6270416;22;20168;-67
2022/09/25 00:48:11;;;;;;;1999.90;999.90;;;;;;;11.46;100.00;92945.16;6245297;22;20501;-66
2022/09/25 00:50:49;;;;;;;1999.90;999.90;;;;;;;11.44;100.00;92942.16;6245711;23;20639;-67
2022/09/25 00:53:26;;;;;;;1999.90;999.90;;;;;;;11.44;100.00;92937.44;6245687;23;20212;-65
2022/09/25 00:55:52;;;;;;;1999.90;999.90;;;;;;;11.50;100.00;92935.56;6245651;23;20166;-65
2022/09/25 00:58:22;;;;;;;1999.90;999.90;;;;;;;11.50;100.00;92930.09;6245673;23;20579;-66
2022/09/25 01:00:47;;;;;;;1999.90;999.90;;;;;;;11.52;100.00;92926.91;6270672;22;20166;-65
2022/09/25 01:03:14;;;;;;;1999.90;999.90;;;;;;;11.46;100.00;92928.75;6245048;23;20235;-65
2022/09/25 01:05:42;;;;;;;1999.90;999.90;;;;;;;11.43;100.00;92929.69;6245360;23;20161;-66
2022/09/25 01:08:11;;;;;;;1999.90;999.90;;;;;;;11.42;100.00;92922.72;6245428;22;20257;-65
2022/09/25 01:10:37;;;;;;;1999.90;999.90;;;;;;;11.39;100.00;92918.97;6272055;22;20162;-63
2022/09/25 01:13:03;;;;;;;1999.90;999.90;;;;;;;11.36;100.00;92921.88;6246283;23;20194;-64
2022/09/25 01:16:09;;;;;;;1999.90;999.90;;;;;;;11.32;100.00;92918.56;6271890;22;20161;-65
2022/09/25 01:18:46;;;;;;;1999.90;999.90;;;;;;;11.29;100.00;92914.06;6212234;23;20263;-65
2022/09/25 01:21:25;;;;;;;1999.90;999.90;;;;;;;11.25;100.00;92910.75;6246381;23;20591;-65
2022/09/25 01:24:09;;;;;;;1999.90;999.90;;;;;;;11.14;100.00;92916.72;6246577;23;20195;-66
2022/09/25 01:26:53;;;;;;;1999.90;999.90;;;;;;;11.15;100.00;92909.31;6272284;22;20169;-65
2022/09/25 01:29:25;;;;;;;1999.90;999.90;;;;;;;11.15;100.00;92910.03;6272270;22;20583;-65
2022/09/25 01:32:20;;;;;;;1999.90;999.90;;;;;;;11.11;100.00;92906.75;6271877;22;20165;-65
2022/09/25 01:34:52;;;;;;;1999.90;999.90;;;;;;;11.06;100.00;92906.63;6246787;23;20212;-65
2022/09/25 01:37:25;;;;;;;1999.90;999.90;;;;;;;10.99;100.00;92904.25;6272154;22;20162;-65
2022/09/25 01:40:04;;;;;;;1999.90;999.90;;;;;;;10.91;100.00;92911.28;6247059;23;20165;-65
2022/09/25 01:42:39;;;;;;;1999.90;999.90;;;;;;;10.84;100.00;92912.41;6272374;22;20214;-65
2022/09/25 01:45:10;;;;;;;1999.90;999.90;;;;;;;10.81;100.00;92918.78;6246757;23;20251;-65
2022/09/25 01:47:37;;;;;;;1999.90;999.90;;;;;;;10.80;100.00;92913.78;6246734;23;20248;-65
2022/09/25 01:50:17;;;;;;;1999.90;999.90;;;;;;;10.75;100.00;92914.44;6271582;22;20623;-65
2022/09/25 01:52:48;;;;;;;1999.90;999.90;;;;;;;10.75;100.00;92908.97;6246386;23;20253;-65
2022/09/25 01:55:40;;;;;;;1999.90;999.90;;;;;;;10.65;100.00;92916.47;6246766;23;20169;-65
2022/09/25 01:58:27;;;;;;;1999.90;999.90;;;;;;;10.63;100.00;92923.63;6246334;23;20165;-65
2022/09/25 02:00:58;;;;;;;1999.90;999.90;;;;;;;10.52;100.00;92928.84;6246767;23;20165;-65
2022/09/25 02:03:29;;;;;;;1999.90;999.90;;;;;;;10.51;100.00;92928.06;6246552;23;20168;-65
2022/09/25 02:06:01;;;;;;;1999.90;999.90;;;;;;;10.52;100.00;92924.13;6272108;22;20233;-65
2022/09/25 02:08:34;;;;;;;1999.90;999.90;;;;;;;10.52;100.00;92929.56;6246569;23;20221;-65
2022/09/25 02:11:02;;;;;;;1999.90;999.90;;;;;;;10.47;100.00;92926.72;6246710;23;20175;-65
2022/09/25 02:14:00;;;;;;;1999.90;999.90;;;;;;;10.44;100.00;92933.88;6271736;22;20181;-65
2022/09/25 02:16:33;;;;;;;1999.90;999.90;;;;;;;10.41;100.00;92923.13;6226382;23;20169;-65
2022/09/25 02:21:52;;;;;;;1999.90;999.90;;;;;;;10.38;100.00;92929.50;6247353;23;20168;-66
2022/09/25 02:24:26;;;;;;;1999.90;999.90;;;;;;;10.35;100.00;92933.16;6246348;23;20184;-65
2022/09/25 02:26:52;;;;;;;1999.90;999.90;;;;;;;10.32;100.00;92936.81;6272216;22;20176;-65
2022/09/25 02:29:18;;;;;;;1999.90;999.90;;;;;;;10.26;100.00;92938.66;6246741;23;20169;-65
2022/09/25 02:31:52;;;;;;;1999.90;999.90;;;;;;;10.24;100.00;92941.09;6246183;23;20231;-66
2022/09/25 02:34:18;;;;;;;1999.90;999.90;;;;;;;10.25;100.00;92945.31;6246271;23;20617;-65
2022/09/25 02:36:44;;;;;;;1999.90;999.90;;;;;;;10.25;100.00;92948.03;6271381;22;20165;-65
2022/09/25 02:39:12;;;;;;;1999.90;999.90;;;;;;;10.23;100.00;92945.03;6271556;22;20168;-66
2022/09/25 02:41:47;;;;;;;1999.90;999.90;;;;;;;10.22;100.00;92933.34;6271391;22;20165;-66
2022/09/25 02:44:19;;;;;;;1999.90;999.90;;;;;;;10.23;100.00;92942.31;6271498;22;20163;-66
2022/09/25 02:47:07;;;;;;;1999.90;999.90;;;;;;;10.22;100.00;92938.03;6271403;22;20172;-66
2022/09/25 02:49:37;;;;;;;1999.90;999.90;;;;;;;10.24;100.00;92936.38;6245545;23;20172;-66
2022/09/25 02:52:12;;;;;;;1999.90;999.90;;;;;;;10.19;100.00;92933.53;6245977;23;20204;-66
2022/09/25 02:54:51;;;;;;;1999.90;999.90;;;;;;;10.21;100.00;92922.91;6246245;23;20185;-65
2022/09/25 02:57:38;;;;;;;1999.90;999.90;;;;;;;10.17;100.00;92925.03;6246630;23;20168;-65
2022/09/25 03:00:06;;;;;;;1999.90;999.90;;;;;;;10.16;100.00;92918.09;6271760;22;20177;-65
2022/09/25 03:02:34;;;;;;;1999.90;999.90;;;;;;;10.13;100.00;92920.50;6271419;22;20193;-66
2022/09/25 03:05:01;;;;;;;1999.90;999.90;;;;;;;10.10;100.00;92915.97;6245679;22;20169;-65
2022/09/25 03:07:26;;;;;;;1999.90;999.90;;;;;;;10.08;100.00;92909.47;6246140;23;20165;-65
2022/09/25 03:09:54;;;;;;;1999.90;999.90;;;;;;;10.05;100.00;92908.44;6245822;23;20474;-65
2022/09/25 03:12:20;;;;;;;1999.90;999.90;;;;;;;10.05;100.00;92908.44;6271660;22;20664;-66
2022/09/25 03:14:45;;;;;;;1999.90;999.90;;;;;;;10.05;100.00;92908.44;6271356;22;20212;-66
2022/09/25 03:17:12;;;;;;;1999.90;999.90;;;;;;;10.07;100.00;92910.69;6271442;22;20161;-66
2022/09/25 03:19:37;;;;;;;1999.90;999.90;;;;;;;10.07;100.00;92906.00;6245811;23;20220;-66
2022/09/25 03:22:03;;;;;;;1999.90;999.90;;;;;;;10.07;100.00;92906.00;6246190;23;20187;-66
2022/09/25 03:24:30;;;;;;;1999.90;999.90;;;;;;;10.05;100.00;92908.44;6245698;23;20252;-66
2022/09/25 03:26:55;;;;;;;1999.90;999.90;;;;;;;10.01;100.00;92907.81;6271191;22;20153;-66
2022/09/25 03:29:21;;;;;;;1999.90;999.90;;;;;;;10.01;100.00;92902.34;6271264;22;20172;-66
2022/09/25 03:31:47;;;;;;;1999.90;999.90;;;;;;;10.00;100.00;92900.09;6245374;23;20203;-68
2022/09/25 03:34:14;;;;;;;1999.90;999.90;;;;;;;9.99;100.00;92888.41;6245916;22;20640;-65
2022/09/25 03:36:41;;;;;;;1999.90;999.90;;;;;;;9.98;100.00;92892.38;6245215;23;20165;-66
2022/09/25 03:39:09;;;;;;;1999.90;999.90;;;;;;;9.96;100.00;92894.81;6271681;22;20583;-65
2022/09/25 03:41:35;;;;;;;1999.90;999.90;;;;;;;10.00;100.00;92891.91;6245845;22;20617;-65
2022/09/25 03:44:01;;;;;;;1999.90;999.90;;;;;;;9.99;100.00;92888.41;6271132;22;20166;-65
2022/09/25 03:46:36;;;;;;;1999.90;999.90;;;;;;;10.04;100.00;92890.53;6245585;23;20169;-65
2022/09/25 03:49:02;;;;;;;1999.90;999.90;;;;;;;9.99;100.00;92891.13;6246012;23;20648;-65
2022/09/25 03:51:29;;;;;;;1999.90;999.90;;;;;;;10.00;100.00;92898.13;6245263;22;20220;-65
2022/09/25 03:53:55;;;;;;;1999.90;999.90;;;;;;;9.98;100.00;92902.50;6245379;23;20185;-65
2022/09/25 03:56:23;;;;;;;1999.90;999.90;;;;;;;9.99;100.00;92893.13;6271686;22;20171;-65
2022/09/25 03:58:50;;;;;;;1999.90;999.90;;;;;;;10.00;100.00;92898.13;6245828;23;20157;-66
2022/09/25 04:01:18;;;;;;;1999.90;999.90;;;;;;;10.03;100.00;92889.00;6246156;22;20177;-65
2022/09/25 04:03:46;;;;;;;1999.90;999.90;;;;;;;10.04;100.00;92885.06;6245445;23;20244;-65
2022/09/25 04:06:13;;;;;;;1999.90;999.90;;;;;;;10.04;100.00;92885.06;6246083;23;20173;-63
2022/09/25 04:08:40;;;;;;;1999.90;999.90;;;;;;;10.01;100.00;92880.53;6246373;22;20172;-64
2022/09/25 04:11:05;;;;;;;1999.90;999.90;;;;;;;10.02;100.00;92875.84;6245441;22;20240;-63
2022/09/25 04:13:35;;;;;;;1999.90;999.90;;;;;;;10.05;100.00;92869.47;6270943;22;20280;-63
2022/09/25 04:16:02;;;;;;;1999.90;999.90;;;;;;;10.03;100.00;92866.44;6271145;22;20201;-64
2022/09/25 04:18:31;;;;;;;1999.90;999.90;;;;;;;10.02;100.00;92871.13;6246003;23;20574;-63
2022/09/25 04:20:58;;;;;;;1999.90;999.90;;;;;;;10.05;100.00;92880.38;6245683;23;20165;-63
2022/09/25 04:23:23;;;;;;;1999.90;999.90;;;;;;;10.04;100.00;92885.06;6271262;22;20249;-64
2022/09/25 04:25:49;;;;;;;1999.90;999.90;;;;;;;10.06;100.00;92887.38;6245600;23;20193;-64
2022/09/25 04:28:14;;;;;;;1999.90;999.90;;;;;;;10.05;100.00;92885.81;6271017;22;20168;-64
2022/09/25 04:30:39;;;;;;;1999.90;999.90;;;;;;;10.07;100.00;92892.38;6270899;22;20165;-63
2022/09/25 04:35:49;;;;;;;1999.90;999.90;;;;;;;9.84;100.00;92893.00;6247002;23;20218;-64
2022/09/25 04:38:14;;;;;;;1999.90;999.90;;;;;;;9.86;100.00;92884.38;6270727;22;20251;-63
2022/09/25 04:40:39;;;;;;;1999.90;999.90;;;;;;;9.84;100.00;92884.84;6271016;22;20563;-64
2022/09/25 04:43:06;;;;;;;1999.90;999.90;;;;;;;10.12;100.00;92868.41;6271675;22;20164;-62
2022/09/25 04:45:33;;;;;;;1999.90;999.90;;;;;;;10.15;100.00;92854.59;6245401;22;20169;-64
2022/09/25 04:47:59;;;;;;;1999.90;999.90;;;;;;;10.21;100.00;92847.31;6245252;23;20193;-64
2022/09/25 04:50:26;;;;;;;1999.90;999.90;;;;;;;10.27;100.00;92850.16;6245288;22;20272;-64
2022/09/25 04:52:52;;;;;;;1999.90;999.90;;;;;;;10.29;100.00;92842.25;6245121;22;20227;-64
2022/09/25 04:55:20;;;;;;;1999.90;999.90;;;;;;;10.31;100.00;92848.00;6245488;23;20165;-64
2022/09/25 04:57:49;;;;;;;1999.90;999.90;;;;;;;10.36;100.00;92844.63;6270646;22;20164;-64
2022/09/25 05:00:17;;;;;;;1999.90;999.90;;;;;;;10.35;100.00;92852.09;6245127;23;20165;-65
2022/09/25 05:02:43;;;;;;;1999.90;999.90;;;;;;;10.36;100.00;92850.84;6245061;23;20164;-65
2022/09/25 05:05:09;;;;;;;1999.90;999.90;;;;;;;10.37;100.00;92851.63;6270869;22;20165;-65
2022/09/25 05:07:34;;;;;;;1999.90;999.90;;;;;;;10.41;100.00;92852.94;6246053;23;20200;-65
2022/09/25 05:09:59;;;;;;;1999.90;999.90;;;;;;;10.43;100.00;92861.44;6270701;22;20180;-65
2022/09/25 05:12:25;;;;;;;1999.90;999.90;;;;;;;10.50;100.00;92863.03;6270422;22;20158;-65
2022/09/25 05:14:50;;;;;;;1999.90;999.90;;;;;;;10.50;100.00;92860.31;6270544;22;20193;-65
2022/09/25 05:17:15;;;;;;;1999.90;999.90;;;;;;;10.47;100.00;92861.25;6270691;22;20181;-64
2022/09/25 05:19:41;;;;;;;1999.90;999.90;;;;;;;10.56;100.00;92858.47;6270689;22;20165;-65
2022/09/25 05:22:06;;;;;;;1999.90;999.90;;;;;;;10.61;100.00;92855.09;6270475;22;20548;-64
2022/09/25 05:24:32;;;;;;;1999.90;999.90;;;;;;;10.62;100.00;92851.13;6270597;22;20184;-63
2022/09/25 05:26:57;;;;;;;1999.90;999.90;;;;;;;10.63;100.00;92853.41;6270400;22;20165;-63
2022/09/25 05:29:23;;;;;;;1999.90;999.90;;;;;;;10.63;100.00;92863.59;6245573;23;20622;-65
2022/09/25 05:31:48;;;;;;;1999.90;999.90;;;;;;;10.44;100.00;92873.06;6244528;23;20169;-64
2022/09/25 05:34:15;;;;;;;1999.90;999.90;;;;;;;10.49;100.00;92854.09;6270489;22;20191;-63
2022/09/25 05:36:41;;;;;;;1999.90;999.90;;;;;;;10.51;100.00;92867.28;6245269;23;20213;-63
2022/09/25 05:39:09;;;;;;;1999.90;999.90;;;;;;;10.48;100.00;92865.50;6244728;22;20159;-63
2022/09/25 05:41:35;;;;;;;1999.90;999.90;;;;;;;10.48;100.00;92881.88;6245274;23;20232;-63
2022/09/25 05:44:05;;;;;;;1999.90;999.90;;;;;;;10.45;100.00;92874.59;6244722;23;20166;-63
2022/09/25 05:46:32;;;;;;;1999.90;999.90;;;;;;;10.46;100.00;92876.88;6244943;22;20576;-63
2022/09/25 05:48:59;;;;;;;1999.90;999.90;;;;;;;10.43;100.00;92877.03;6244755;23;20167;-64
2022/09/25 05:51:24;;;;;;;1999.90;999.90;;;;;;;10.44;100.00;92884.00;6244952;23;20189;-63
2022/09/25 05:53:52;;;;;;;1999.90;999.90;;;;;;;10.47;100.00;92883.84;6244599;23;20604;-64
2022/09/25 05:56:17;;;;;;;1999.90;999.90;;;;;;;10.43;100.00;92888.72;6270998;22;20197;-64
2022/09/25 05:58:43;;;;;;;1999.90;999.90;;;;;;;10.42;100.00;92886.44;6271431;22;20166;-67
2022/09/25 06:01:09;;;;;;;1999.90;999.90;;;;;;;10.46;100.00;92887.03;6272329;22;20158;-66
2022/09/25 06:03:35;;;;;;;1999.90;999.90;;;;;;;10.52;100.00;92879.72;6246520;23;20192;-64
2022/09/25 06:06:00;;;;;;;1999.90;999.90;;;;;;;10.59;100.00;92879.38;6272044;22;20166;-64
2022/09/25 06:08:29;;;;;;;1999.90;999.90;;;;;;;10.70;100.00;92880.34;6271475;22;20165;-64
2022/09/25 06:10:55;;;;;;;1999.90;999.90;;;;;;;10.78;100.00;92880.75;6245912;23;20201;-64
2022/09/25 06:13:22;;;;;;;1999.90;999.90;;;;;;;10.84;100.00;92870.69;6271596;22;20189;-66
2022/09/25 06:15:51;;;;;;;1999.90;999.90;;;;;;;10.89;100.00;92870.06;6245806;22;20162;-65
2022/09/25 06:18:17;;;;;;;1999.90;999.90;;;;;;;10.97;100.00;92876.66;6246087;22;20170;-66
2022/09/25 06:20:42;;;;;;;1999.90;999.90;;;;;;;11.03;100.00;92872.09;6245972;22;20184;-63
2022/09/25 06:23:08;;;;;;;1999.90;999.90;;;;;;;11.05;100.00;92867.66;6271564;22;20492;-62
2022/09/25 06:25:35;;;;;;;1999.90;999.90;;;;;;;11.07;100.00;92869.94;6245920;22;20222;-61
2022/09/25 06:28:01;;;;;;;1999.90;999.90;;;;;;;11.07;100.00;92870.66;6271725;22;20247;-61
2022/09/25 06:30:34;;;;;;;1999.90;999.90;;;;;;;11.06;100.00;92868.41;6245972;23;20161;-62
2022/09/25 06:33:00;;;;;;;1999.90;999.90;;;;;;;11.07;100.00;92876.13;6246418;23;20188;-62
2022/09/25 06:35:28;;;;;;;1999.90;999.90;;;;;;;11.13;100.00;92873.50;6271574;22;20167;-63
2022/09/25 06:37:57;;;;;;;1999.90;999.90;;;;;;;11.17;100.00;92874.06;6245515;23;20194;-63
2022/09/25 06:40:26;;;;;;;1999.90;999.90;;;;;;;11.25;100.00;92872.50;6245951;23;20161;-63
2022/09/25 06:43:12;;;;;;;1999.90;999.90;;;;;;;11.31;100.00;92878.81;6271638;22;20252;-64
2022/09/25 06:45:38;;;;;;;1999.90;999.90;;;;;;;11.41;100.00;92866.56;6246603;23;20177;-60
2022/09/25 06:48:12;;;;;;;1999.90;999.90;;;;;;;11.46;100.00;92869.41;6245776;22;20161;-62
2022/09/25 06:50:38;;;;;;;1999.90;999.90;;;;;;;11.56;100.00;92859.91;6246299;23;20192;-63
2022/09/25 06:53:03;;;;;;;1999.90;999.90;;;;;;;11.69;100.00;92860.38;6271228;22;20205;-63
2022/09/25 06:55:33;;;;;;;1999.90;999.90;;;;;;;11.75;100.00;92863.22;6271362;22;20190;-63
2022/09/25 06:57:59;;;;;;;1999.90;999.90;;;;;;;11.77;100.00;92861.50;6246181;23;20220;-63
2022/09/25 07:00:25;;;;;;;1999.90;999.90;;;;;;;11.74;100.00;92867.19;6246006;22;20168;-62
2022/09/25 07:05:34;;;;;;;1999.90;999.90;;;;;;;11.80;100.00;92876.97;6247123;23;20266;-74
2022/09/25 07:08:00;;;;;;;1999.90;999.90;;;;;;;11.78;100.00;92878.69;6271214;22;20153;-63
2022/09/25 07:10:25;;;;;;;1999.90;999.90;;;;;;;11.83;100.00;92881.50;6246068;22;20164;-64
2022/09/25 07:12:50;;;;;;;1999.90;999.90;;;;;;;11.88;100.00;92880.84;6245596;22;20173;-64
2022/09/25 07:15:16;;;;;;;1999.90;999.90;;;;;;;11.95;100.00;92887.91;6271548;22;20170;-63
2022/09/25 07:17:42;;;;;;;1999.90;999.90;;;;;;;12.01;100.00;92884.03;6245583;23;20169;-62
2022/09/25 07:20:09;;;;;;;1999.90;999.90;;;;;;;12.09;100.00;92887.91;6245686;23;20665;-61
2022/09/25 07:22:34;;;;;;;1999.90;999.90;;;;;;;12.09;100.00;92882.41;6246079;23;20178;-63
2022/09/25 07:25:03;;;;;;;1999.90;999.90;;;;;;;12.25;100.00;92881.19;6246098;23;20230;-63
2022/09/25 07:27:29;;;;;;;1999.90;999.90;;;;;;;12.37;100.00;92880.09;6246064;23;20487;-62
2022/09/25 07:29:55;;;;;;;1999.90;999.90;;;;;;;12.46;100.00;92882.75;6245700;23;20166;-62
2022/09/25 07:32:20;;;;;;;1999.90;999.90;;;;;;;12.58;100.00;92878.91;6271218;22;20161;-64
2022/09/25 07:34:49;;;;;;;1999.90;999.90;;;;;;;12.73;100.00;92868.66;6245665;23;20194;-64
2022/09/25 07:37:18;;;;;;;1999.90;999.90;;;;;;;12.93;100.00;92865.94;6246383;22;20158;-63
2022/09/25 07:39:43;;;;;;;1999.90;999.90;;;;;;;13.05;100.00;92873.09;6271844;22;20160;-64
2022/09/25 07:42:09;;;;;;;1999.90;999.90;;;;;;;13.16;100.00;92875.97;6271151;22;20171;-64
2022/09/25 07:44:35;;;;;;;1999.90;999.90;;;;;;;13.44;100.00;92870.78;6245632;23;20179;-65
2022/09/25 07:47:01;;;;;;;1999.90;999.90;;;;;;;13.61;100.00;92866.97;6245710;23;20249;-65
2022/09/25 07:49:27;;;;;;;1999.90;999.90;;;;;;;13.86;100.00;92874.44;6271254;22;20171;-63
2022/09/25 07:51:53;;;;;;;1999.90;999.90;;;;;;;14.00;100.00;92884.53;6245389;23;20196;-63
2022/09/25 07:54:18;;;;;;;1999.90;999.90;;;;;;;14.26;100.00;92896.25;6245911;22;20189;-62
2022/09/25 07:56:44;;;;;;;1999.90;999.90;;;;;;;14.62;100.00;92894.75;6270973;22;20225;-62
2022/09/25 07:59:09;;;;;;;1999.90;999.90;;;;;;;14.92;100.00;92907.69;6270945;22;20195;-62
2022/09/25 08:01:34;;;;;;;1999.90;999.90;;;;;;;15.13;100.00;92911.81;6271917;22;20169;-68
2022/09/25 08:04:00;;;;;;;1999.90;999.90;;;;;;;15.22;100.00;92928.09;6245571;22;20176;-65
2022/09/25 08:06:25;;;;;;;1999.90;999.90;;;;;;;15.39;100.00;92945.44;6245400;23;20183;-63
2022/09/25 08:08:51;;;;;;;1999.90;999.90;;;;;;;15.58;100.00;92962.28;6270645;22;20219;-66
2022/09/25 08:11:17;;;;;;;1999.90;999.90;;;;;;;15.67;100.00;92989.59;6271673;22;20199;-64
2022/09/25 08:13:43;;;;;;;1999.90;999.90;;;;;;;15.72;100.00;93017.13;6246091;22;20626;-62
2022/09/25 08:16:14;;;;;;;1999.90;999.90;;;;;;;15.68;100.00;93071.66;6246100;22;20165;-62
2022/09/25 08:18:41;;;;;;;1999.90;999.90;;;;;;;15.78;100.00;93103.22;6245133;22;20248;-61
2022/09/25 08:21:08;;;;;;;1999.90;999.90;;;;;;;15.74;100.00;93145.97;6245429;23;20256;-67
2022/09/25 08:23:34;;;;;;;1999.90;999.90;;;;;;;15.87;100.00;93166.34;6245416;22;20165;-66
2022/09/25 08:26:00;;;;;;;1999.90;999.90;;;;;;;16.10;100.00;93190.00;6271431;22;20168;-65
2022/09/25 08:28:26;;;;;;;1999.90;999.90;;;;;;;16.10;100.00;93228.53;6271849;22;20165;-66
2022/09/25 08:30:52;;;;;;;1999.90;999.90;;;;;;;16.09;100.00;93254.59;6245412;23;20160;-66
2022/09/25 08:33:18;;;;;;;1999.90;999.90;;;;;;;16.27;100.00;93269.97;6245166;22;20242;-65
2022/09/25 08:35:53;;;;;;;1999.90;999.90;;;;;;;16.12;100.00;93294.91;6245481;22;20156;-65
2022/09/25 08:38:19;;;;;;;1999.90;999.90;;;;;;;16.36;100.00;93311.84;6246086;23;20169;-66
2022/09/25 08:40:52;;;;;;;1999.90;999.90;;;;;;;16.50;100.00;93326.75;6271195;22;20251;-66
2022/09/25 08:43:21;;;;;;;1999.90;999.90;;;;;;;16.54;100.00;93349.34;6270971;22;20167;-64
2022/09/25 08:51:26;;;;;;;1999.90;999.90;;;;;;;16.49;100.00;93412.69;6246162;23;20235;-61
2022/09/25 08:53:52;;;;;;;1999.90;999.90;;;;;;;16.33;100.00;93425.78;6271164;22;20688;-68
2022/09/25 08:56:18;;;;;;;1999.90;999.90;;;;;;;16.02;100.00;93441.50;6245248;23;20187;-66
2022/09/25 08:58:50;;;;;;;1999.90;999.90;;;;;;;16.06;100.00;93437.31;6245949;23;20173;-63
2022/09/25 09:01:28;;;;;;;1999.90;999.90;;;;;;;15.80;100.00;93449.53;6244838;23;20559;-62
2022/09/25 09:04:30;;;;;;;1999.90;999.90;;;;;;;15.76;100.00;93436.00;6270785;22;20188;-62
2022/09/25 09:07:06;;;;;;;1999.90;999.90;;;;;;;15.73;100.00;93425.94;6245606;23;20161;-64
2022/09/25 09:09:48;;;;;;;1999.90;999.90;;;;;;;15.81;100.00;93435.28;6270852;22;20157;-64
2022/09/25 09:12:17;;;;;;;1999.90;999.90;;;;;;;15.95;100.00;93439.94;6271303;22;20169;-64
2022/09/25 09:14:50;;;;;;;1999.90;999.90;;;;;;;16.02;100.00;93442.28;6245197;23;20570;-63
2022/09/25 09:17:25;;;;;;;1999.90;999.90;;;;;;;16.04;100.00;93450.81;6244843;22;20165;-63
2022/09/25 09:19:58;;;;;;;1999.90;999.90;;;;;;;16.06;100.00;93453.81;6270383;22;20192;-64
2022/09/25 09:22:31;;;;;;;1999.90;999.90;;;;;;;15.99;100.00;93454.25;6270922;22;20256;-64
2022/09/25 09:24:59;;;;;;;1999.90;999.90;;;;;;;15.87;100.00;93460.13;6245242;23;20228;-63
2022/09/25 09:28:00;;;;;;;1999.90;999.90;;;;;;;15.81;100.00;93456.56;6270460;22;20180;-63
2022/09/25 09:31:08;;;;;;;1999.90;999.90;;;;;;;15.76;100.00;93458.00;6245011;23;20183;-63
2022/09/25 09:33:43;;;;;;;1999.90;999.90;;;;;;;15.70;100.00;93459.94;6230926;22;20189;-63
2022/09/25 09:36:29;;;;;;;1999.90;999.90;;;;;;;15.44;100.00;93470.13;6271790;22;20192;-63
2022/09/25 09:38:54;;;;;;;1999.90;999.90;;;;;;;15.51;100.00;93464.22;6271873;22;20165;-64
2022/09/25 09:41:44;;;;;;;1999.90;999.90;;;;;;;15.65;100.00;93468.88;6271819;22;20219;-63
2022/09/25 09:44:28;;;;;;;1999.90;999.90;;;;;;;15.89;100.00;93466.66;6271972;22;20161;-62
2022/09/25 09:47:10;;;;;;;1999.90;999.90;;;;;;;16.22;100.00;93455.25;6271947;22;20486;-61
2022/09/25 09:49:43;;;;;;;1999.90;999.90;;;;;;;16.44;100.00;93489.28;6271968;22;20169;-60
2022/09/25 09:52:21;;;;;;;1999.90;999.90;;;;;;;16.69;100.00;93493.28;6246025;23;20159;-64
2022/09/25 09:55:00;;;;;;;1999.90;999.90;;;;;;;16.93;100.00;93517.78;6246404;23;20184;-61
2022/09/25 09:57:31;;;;;;;1999.90;999.90;;;;;;;17.10;100.00;93532.44;6245990;23;20200;-63
2022/09/25 10:00:15;;;;;;;1999.90;999.90;;;;;;;17.33;100.00;93545.16;6246459;23;20169;-65
2022/09/25 10:02:53;;;;;;;1999.90;999.90;;;;;;;17.77;100.00;93553.75;6271947;22;20235;-63
2022/09/25 10:05:23;;;;;;;1999.90;999.90;;;;;;;18.75;100.00;93547.06;6271956;22;20175;-63
2022/09/25 10:07:50;;;;;;;1999.90;999.90;;;;;;;19.21;100.00;93553.66;6246238;23;20167;-63
2022/09/25 10:10:16;;;;;;;1999.90;999.90;;;;;;;18.91;100.00;93569.22;6246703;23;20162;-64
2022/09/25 10:12:49;;;;;;;1999.90;999.90;;;;;;;17.95;100.00;93611.34;6245566;23;20204;-64
2022/09/25 10:15:38;;;;;;;1999.90;999.90;;;;;;;17.71;100.00;93606.19;6245666;22;20697;-65
2022/09/25 10:18:05;;;;;;;1999.90;999.90;;;;;;;18.28;100.00;93581.13;6245919;23;20216;-64
2022/09/25 10:21:00;;;;;;;1999.90;999.90;;;;;;;18.45;100.00;93584.72;6271856;22;20157;-64
2022/09/25 10:23:38;;;;;;;1999.90;999.90;;;;;;;18.39;100.00;93595.00;6271720;22;20188;-63
2022/09/25 10:26:28;;;;;;;1999.90;999.90;;;;;;;18.79;100.00;93589.84;6271602;22;20197;-63
2022/09/25 10:29:00;;;;;;;1999.90;999.90;;;;;;;19.63;100.00;93577.56;6246235;23;20177;-64
2022/09/25 10:31:35;;;;;;;1999.90;999.90;;;;;;;20.07;100.00;93583.00;6245706;23;20165;-62
2022/09/25 10:34:01;;;;;;;1999.90;999.90;;;;;;;19.97;100.00;93601.19;6245781;23;20191;-61
2022/09/25 10:36:38;;;;;;;1999.90;999.90;;;;;;;19.74;100.00;93599.69;6271496;22;20169;-61
2022/09/25 10:39:18;;;;;;;1999.90;999.90;;;;;;;19.22;100.00;93626.38;6246221;23;20203;-61
2022/09/25 10:41:44;;;;;;;1999.90;999.90;;;;;;;19.03;100.00;93628.13;6271590;22;20165;-61
2022/09/25 10:44:32;;;;;;;1999.90;999.90;;;;;;;18.83;100.00;93631.84;6245816;23;20219;-57
2022/09/25 10:50:13;;;;;;;1999.90;999.90;;;;;;;18.65;100.00;93639.84;6242444;23;20199;-61
2022/09/25 10:52:50;;;;;;;1999.90;999.90;;;;;;;19.20;100.00;93624.09;6271500;22;20195;-61
2022/09/25 10:55:28;;;;;;;1999.90;999.90;;;;;;;19.31;100.00;93640.75;6246471;23;20222;-60
2022/09/25 10:58:13;;;;;;;1999.90;999.90;;;;;;;19.37;100.00;93643.53;6246048;23;20161;-60
2022/09/25 11:00:45;;;;;;;1999.90;999.90;;;;;;;19.60;100.00;93638.75;6246341;23;20484;-60
2022/09/25 11:03:20;;;;;;;1999.90;999.90;;;;;;;19.80;100.00;93636.47;6271284;22;20276;-60
2022/09/25 11:06:06;;;;;;;1999.90;999.90;;;;;;;19.69;100.00;93653.09;6246105;23;20253;-60
2022/09/25 11:08:36;;;;;;;1999.90;999.90;;;;;;;19.51;100.00;93653.59;6246219;23;20211;-59
2022/09/25 11:11:03;;;;;;;1999.90;999.90;;;;;;;19.68;100.00;93646.06;6246415;23;20232;-59
2022/09/25 11:13:48;;;;;;;1999.90;999.90;;;;;;;20.33;100.00;93643.72;6245584;22;20196;-59
2022/09/25 11:16:14;;;;;;;1999.90;999.90;;;;;;;20.81;100.00;93628.16;6245653;23;20317;-60
2022/09/25 11:18:39;;;;;;;1999.90;999.90;;;;;;;20.88;100.00;93644.28;6245593;23;20176;-60
2022/09/25 11:21:16;;;;;;;1999.90;999.90;;;;;;;20.84;100.00;93699.28;6271248;22;20169;-59